EXS19H LEAL-EGCC
Flight info
| Callsign | EXS19H |
|---|---|
| Flight time | 2h 25m |
| Altitude | 36000 |
| Route | MITOS N608 COMPI Y90 DIKUT/N0448F380 Y90 USKAR N863 GIROM DCT AGN DCT SECHE DCT UVELI DCT CNA DCT TUPAR UY120 AKIKI UN867 AVANT UM184 HEMEL T420 ELVOS |
| Aircraft | B738/M-SDE2E3FGHIRWXY/LB1 |
Departure
| Time | 2026-05-06 17:44 |
|---|---|
| Airport | Alicante-Elche Miguel Hernández Airport (LEAL) |
Arrival
| Time | 2026-05-06 20:10 |
|---|---|
| Airport | Manchester Airport (EGCC) |
| Time | Latitude | Longitude | Altitude | Speed | Heading |
|---|---|---|---|---|---|
| 2026-05-06 17:17 | 38.28484 | -0.55859 | 101 ft | 0 kts | 10° |
| 2026-05-06 17:38 | 38.28505 | -0.55854 | 101 ft | 6 kts | 10° |
| 2026-05-06 17:38 | 38.28527 | -0.55850 | 102 ft | 0 kts | 4° |
| 2026-05-06 17:38 | 38.28528 | -0.55850 | 102 ft | 0 kts | 349° |
| 2026-05-06 17:39 | 38.28537 | -0.55868 | 102 ft | 4 kts | 285° |
| 2026-05-06 17:39 | 38.28546 | -0.55942 | 103 ft | 13 kts | 279° |
| 2026-05-06 17:39 | 38.28498 | -0.56019 | 101 ft | 11 kts | 188° |
| 2026-05-06 17:39 | 38.28432 | -0.56059 | 101 ft | 10 kts | 255° |
| 2026-05-06 17:40 | 38.28431 | -0.56078 | 101 ft | 9 kts | 278° |
| 2026-05-06 17:40 | 38.28439 | -0.56139 | 103 ft | 7 kts | 280° |
| 2026-05-06 17:40 | 38.28450 | -0.56210 | 104 ft | 9 kts | 281° |
| 2026-05-06 17:40 | 38.28466 | -0.56311 | 106 ft | 13 kts | 280° |
| 2026-05-06 17:41 | 38.28482 | -0.56440 | 111 ft | 15 kts | 279° |
| 2026-05-06 17:41 | 38.28503 | -0.56585 | 118 ft | 17 kts | 279° |
| 2026-05-06 17:41 | 38.28525 | -0.56743 | 125 ft | 18 kts | 279° |
| 2026-05-06 17:41 | 38.28547 | -0.56905 | 134 ft | 18 kts | 279° |
| 2026-05-06 17:42 | 38.28573 | -0.57080 | 142 ft | 21 kts | 281° |
| 2026-05-06 17:42 | 38.28599 | -0.57270 | 148 ft | 21 kts | 278° |
| 2026-05-06 17:42 | 38.28592 | -0.57412 | 152 ft | 12 kts | 220° |
| 2026-05-06 17:42 | 38.28546 | -0.57431 | 152 ft | 0 kts | 191° |
| 2026-05-06 17:43 | 38.28501 | -0.57441 | 151 ft | 13 kts | 186° |
| 2026-05-06 17:43 | 38.28437 | -0.57392 | 148 ft | 10 kts | 98° |
| 2026-05-06 17:43 | 38.28424 | -0.57290 | 145 ft | 14 kts | 99° |
| 2026-05-06 17:44 | 38.28359 | -0.56817 | 127 ft | 95 kts | 99° |
| 2026-05-06 17:44 | 38.28191 | -0.55673 | 113 ft | 162 kts | 98° |
| 2026-05-06 17:44 | 38.27972 | -0.54183 | 677 ft | 181 kts | 99° |
| 2026-05-06 17:44 | 38.27726 | -0.52617 | 1684 ft | 183 kts | 97° |
| 2026-05-06 17:45 | 38.27512 | -0.50973 | 2259 ft | 203 kts | 97° |
| 2026-05-06 17:45 | 38.27494 | -0.49069 | 2711 ft | 227 kts | 71° |
| 2026-05-06 17:45 | 38.28377 | -0.47385 | 3453 ft | 241 kts | 43° |
| 2026-05-06 17:45 | 38.29589 | -0.45804 | 4294 ft | 256 kts | 50° |
| 2026-05-06 17:46 | 38.30624 | -0.43944 | 5240 ft | 265 kts | 53° |
| 2026-05-06 17:46 | 38.31558 | -0.41899 | 6205 ft | 273 kts | 64° |
| 2026-05-06 17:46 | 38.32288 | -0.39662 | 7177 ft | 279 kts | 65° |
| 2026-05-06 17:46 | 38.33033 | -0.37392 | 8126 ft | 285 kts | 65° |
| 2026-05-06 17:47 | 38.33801 | -0.35050 | 9071 ft | 290 kts | 66° |
| 2026-05-06 17:47 | 38.34578 | -0.32660 | 10000 ft | 295 kts | 67° |
| 2026-05-06 17:47 | 38.35368 | -0.30230 | 10723 ft | 308 kts | 67° |
| 2026-05-06 17:47 | 38.36223 | -0.27604 | 11050 ft | 334 kts | 67° |
| 2026-05-06 17:48 | 38.37160 | -0.24791 | 11660 ft | 349 kts | 66° |
| 2026-05-06 17:48 | 38.38124 | -0.21910 | 12490 ft | 357 kts | 67° |
| 2026-05-06 17:48 | 38.39092 | -0.19004 | 13347 ft | 363 kts | 67° |
| 2026-05-06 17:48 | 38.40091 | -0.16003 | 14214 ft | 369 kts | 67° |
| 2026-05-06 17:49 | 38.41089 | -0.12999 | 15089 ft | 373 kts | 67° |
| 2026-05-06 17:49 | 38.42102 | -0.09948 | 15920 ft | 377 kts | 67° |
| 2026-05-06 17:49 | 38.43126 | -0.06869 | 16721 ft | 382 kts | 66° |
| 2026-05-06 17:49 | 38.44459 | -0.03962 | 17454 ft | 387 kts | 50° |
| 2026-05-06 17:50 | 38.46549 | -0.01795 | 18185 ft | 390 kts | 26° |
| 2026-05-06 17:50 | 38.49126 | -0.00863 | 18879 ft | 392 kts | 3° |
| 2026-05-06 17:50 | 38.51872 | -0.00948 | 19614 ft | 395 kts | 355° |
| 2026-05-06 17:50 | 38.54609 | -0.01116 | 20274 ft | 401 kts | 358° |
| 2026-05-06 17:51 | 38.57385 | -0.01159 | 20930 ft | 405 kts | 359° |
| 2026-05-06 17:51 | 38.60223 | -0.01167 | 21581 ft | 410 kts | 359° |
| 2026-05-06 17:51 | 38.63060 | -0.01177 | 22204 ft | 414 kts | 359° |
| 2026-05-06 17:51 | 38.65983 | -0.01183 | 22823 ft | 418 kts | 359° |
| 2026-05-06 17:52 | 38.68853 | -0.01179 | 23410 ft | 422 kts | 359° |
| 2026-05-06 17:52 | 38.71833 | -0.01169 | 23997 ft | 427 kts | 360° |
| 2026-05-06 17:52 | 38.74784 | -0.01156 | 24557 ft | 431 kts | 360° |
| 2026-05-06 17:52 | 38.77788 | -0.01142 | 25116 ft | 434 kts | 360° |
| 2026-05-06 17:53 | 38.80824 | -0.01126 | 25652 ft | 438 kts | 360° |
| 2026-05-06 17:53 | 38.83865 | -0.01109 | 26167 ft | 442 kts | 0° |
| 2026-05-06 17:53 | 38.86940 | -0.01091 | 26688 ft | 445 kts | 0° |
| 2026-05-06 17:53 | 38.90027 | -0.01073 | 27179 ft | 448 kts | 360° |
| 2026-05-06 17:54 | 38.93177 | -0.01053 | 27680 ft | 451 kts | 359° |
| 2026-05-06 17:54 | 38.96269 | -0.01033 | 28190 ft | 453 kts | 359° |
| 2026-05-06 17:54 | 38.99438 | -0.01013 | 28700 ft | 455 kts | 359° |
| 2026-05-06 17:54 | 39.02584 | -0.00993 | 29225 ft | 456 kts | 359° |
| 2026-05-06 17:55 | 39.05774 | -0.00972 | 29717 ft | 458 kts | 359° |
| 2026-05-06 17:55 | 39.08953 | -0.00952 | 30102 ft | 461 kts | 359° |
| 2026-05-06 17:55 | 39.12183 | -0.00930 | 30646 ft | 460 kts | 359° |
| 2026-05-06 17:55 | 39.15327 | -0.00909 | 31254 ft | 457 kts | 359° |
| 2026-05-06 17:56 | 39.18543 | -0.00887 | 31770 ft | 457 kts | 359° |
| 2026-05-06 17:56 | 39.21663 | -0.00867 | 32261 ft | 456 kts | 359° |
| 2026-05-06 17:56 | 39.24839 | -0.00846 | 32740 ft | 455 kts | 358° |
| 2026-05-06 17:56 | 39.28000 | -0.00825 | 33182 ft | 454 kts | 358° |
| 2026-05-06 17:57 | 39.31137 | -0.00764 | 33618 ft | 454 kts | 1° |
| 2026-05-06 17:57 | 39.34271 | -0.00457 | 34022 ft | 455 kts | 5° |
| 2026-05-06 17:57 | 39.37351 | 0.00260 | 34419 ft | 455 kts | 12° |
| 2026-05-06 17:57 | 39.40407 | 0.01347 | 34830 ft | 455 kts | 14° |
| 2026-05-06 17:58 | 39.43426 | 0.02467 | 35205 ft | 454 kts | 14° |
| 2026-05-06 17:58 | 39.46467 | 0.03551 | 35568 ft | 453 kts | 14° |
| 2026-05-06 17:58 | 39.49506 | 0.04628 | 35902 ft | 453 kts | 14° |
| 2026-05-06 17:58 | 39.52565 | 0.05732 | 35939 ft | 457 kts | 14° |
| 2026-05-06 17:59 | 39.58651 | 0.07964 | 35939 ft | 453 kts | 14° |
| 2026-05-06 17:59 | 39.64662 | 0.10178 | 35939 ft | 450 kts | 14° |
| 2026-05-06 18:00 | 39.70661 | 0.12399 | 35939 ft | 451 kts | 14° |
| 2026-05-06 18:00 | 39.76713 | 0.14647 | 35939 ft | 452 kts | 14° |
| 2026-05-06 18:01 | 39.82742 | 0.16894 | 35939 ft | 452 kts | 14° |
| 2026-05-06 18:01 | 39.88779 | 0.19148 | 35939 ft | 452 kts | 14° |
| 2026-05-06 18:02 | 39.94769 | 0.21390 | 35939 ft | 452 kts | 14° |
| 2026-05-06 18:02 | 40.00804 | 0.23654 | 35939 ft | 451 kts | 14° |
| 2026-05-06 18:03 | 40.06833 | 0.25916 | 35939 ft | 452 kts | 14° |
| 2026-05-06 18:03 | 40.12872 | 0.28185 | 35939 ft | 452 kts | 14° |
| 2026-05-06 18:04 | 40.18881 | 0.30447 | 35939 ft | 452 kts | 14° |
| 2026-05-06 18:04 | 40.24902 | 0.32718 | 35939 ft | 452 kts | 14° |
| 2026-05-06 18:05 | 40.30899 | 0.34985 | 35939 ft | 452 kts | 14° |
| 2026-05-06 18:05 | 40.36962 | 0.37284 | 35939 ft | 452 kts | 14° |
| 2026-05-06 18:06 | 40.42964 | 0.39567 | 36054 ft | 454 kts | 14° |
| 2026-05-06 18:06 | 40.46014 | 0.40728 | 36429 ft | 453 kts | 14° |
| 2026-05-06 18:06 | 40.49028 | 0.41877 | 36697 ft | 453 kts | 14° |
| 2026-05-06 18:07 | 40.52030 | 0.43022 | 36958 ft | 454 kts | 14° |
| 2026-05-06 18:07 | 40.55067 | 0.44182 | 37235 ft | 454 kts | 14° |
| 2026-05-06 18:07 | 40.58068 | 0.45329 | 37495 ft | 454 kts | 14° |
| 2026-05-06 18:07 | 40.61103 | 0.46490 | 37752 ft | 454 kts | 14° |
| 2026-05-06 18:08 | 40.64138 | 0.47653 | 37938 ft | 455 kts | 14° |
| 2026-05-06 18:08 | 40.67199 | 0.48825 | 37937 ft | 458 kts | 14° |
| 2026-05-06 18:08 | 40.73249 | 0.51149 | 37936 ft | 454 kts | 14° |
| 2026-05-06 18:09 | 40.79271 | 0.53465 | 37933 ft | 452 kts | 14° |
| 2026-05-06 18:09 | 40.85341 | 0.55803 | 37925 ft | 453 kts | 14° |
| 2026-05-06 18:10 | 40.91373 | 0.58132 | 37917 ft | 454 kts | 14° |
| 2026-05-06 18:10 | 40.97423 | 0.60472 | 37912 ft | 454 kts | 14° |
| 2026-05-06 18:11 | 41.03498 | 0.62826 | 37912 ft | 457 kts | 13° |
| 2026-05-06 18:11 | 41.09582 | 0.65188 | 37911 ft | 460 kts | 13° |
| 2026-05-06 18:12 | 41.15739 | 0.67583 | 37915 ft | 460 kts | 12° |
| 2026-05-06 18:12 | 41.21840 | 0.69959 | 37936 ft | 459 kts | 12° |
| 2026-05-06 18:13 | 41.27967 | 0.72351 | 37939 ft | 459 kts | 12° |
| 2026-05-06 18:13 | 41.34050 | 0.74730 | 37931 ft | 459 kts | 12° |
| 2026-05-06 18:14 | 41.40176 | 0.77131 | 37923 ft | 459 kts | 12° |
| 2026-05-06 18:14 | 41.46309 | 0.79539 | 37919 ft | 459 kts | 12° |
| 2026-05-06 18:15 | 41.52400 | 0.81935 | 37917 ft | 459 kts | 12° |
| 2026-05-06 18:15 | 41.58498 | 0.84339 | 37914 ft | 460 kts | 12° |
| 2026-05-06 18:16 | 41.64611 | 0.86754 | 37912 ft | 460 kts | 12° |
| 2026-05-06 18:16 | 41.70755 | 0.89186 | 37912 ft | 459 kts | 12° |
| 2026-05-06 18:17 | 41.76840 | 0.91599 | 37912 ft | 460 kts | 12° |
| 2026-05-06 18:17 | 41.82958 | 0.94029 | 37912 ft | 460 kts | 12° |
| 2026-05-06 18:18 | 41.89045 | 0.96453 | 37912 ft | 459 kts | 12° |
| 2026-05-06 18:18 | 41.95141 | 0.98886 | 37912 ft | 458 kts | 12° |
| 2026-05-06 18:19 | 42.01211 | 1.01312 | 37912 ft | 457 kts | 12° |
| 2026-05-06 18:19 | 42.07285 | 1.03745 | 37912 ft | 456 kts | 12° |
| 2026-05-06 18:20 | 42.13386 | 1.05789 | 37912 ft | 450 kts | 3° |
| 2026-05-06 18:20 | 42.19539 | 1.05964 | 37913 ft | 440 kts | 349° |
| 2026-05-06 18:21 | 42.25626 | 1.05264 | 37912 ft | 441 kts | 351° |
| 2026-05-06 18:21 | 42.31722 | 1.04671 | 37912 ft | 441 kts | 350° |
| 2026-05-06 18:22 | 42.37795 | 1.04031 | 37912 ft | 441 kts | 350° |
| 2026-05-06 18:22 | 42.43921 | 1.03380 | 37912 ft | 441 kts | 350° |
| 2026-05-06 18:23 | 42.50016 | 1.02723 | 37912 ft | 442 kts | 350° |
| 2026-05-06 18:23 | 42.56130 | 1.02060 | 37912 ft | 442 kts | 350° |
| 2026-05-06 18:24 | 42.62241 | 1.01394 | 37941 ft | 443 kts | 350° |
| 2026-05-06 18:24 | 42.68375 | 1.00723 | 37975 ft | 444 kts | 350° |
| 2026-05-06 18:25 | 42.74538 | 1.00047 | 38000 ft | 444 kts | 350° |
| 2026-05-06 18:25 | 42.80716 | 0.99369 | 37999 ft | 444 kts | 350° |
| 2026-05-06 18:26 | 42.86868 | 0.98694 | 37999 ft | 444 kts | 350° |
| 2026-05-06 18:26 | 42.92995 | 0.98019 | 37999 ft | 443 kts | 349° |
| 2026-05-06 18:27 | 42.99131 | 0.97343 | 37999 ft | 442 kts | 348° |
| 2026-05-06 18:27 | 43.05254 | 0.96677 | 37999 ft | 439 kts | 347° |
| 2026-05-06 18:28 | 43.11321 | 0.96015 | 37999 ft | 438 kts | 346° |
| 2026-05-06 18:28 | 43.17391 | 0.95328 | 38000 ft | 439 kts | 346° |
| 2026-05-06 18:29 | 43.23473 | 0.94632 | 38000 ft | 438 kts | 346° |
| 2026-05-06 18:29 | 43.29552 | 0.93945 | 38000 ft | 440 kts | 346° |
| 2026-05-06 18:30 | 43.35635 | 0.93288 | 38000 ft | 442 kts | 346° |
| 2026-05-06 18:30 | 43.41762 | 0.92611 | 37999 ft | 440 kts | 346° |
| 2026-05-06 18:31 | 43.47875 | 0.91927 | 38000 ft | 439 kts | 346° |
| 2026-05-06 18:31 | 43.53973 | 0.91242 | 37999 ft | 441 kts | 346° |
| 2026-05-06 18:32 | 43.60056 | 0.90560 | 37996 ft | 440 kts | 346° |
| 2026-05-06 18:32 | 43.66150 | 0.89877 | 37993 ft | 439 kts | 346° |
| 2026-05-06 18:33 | 43.72269 | 0.89171 | 37990 ft | 440 kts | 346° |
| 2026-05-06 18:33 | 43.78361 | 0.88466 | 37989 ft | 440 kts | 347° |
| 2026-05-06 18:34 | 43.84426 | 0.87790 | 37988 ft | 439 kts | 345° |
| 2026-05-06 18:34 | 43.90284 | 0.86063 | 37978 ft | 423 kts | 332° |
| 2026-05-06 18:35 | 43.95616 | 0.82756 | 37971 ft | 417 kts | 326° |
| 2026-05-06 18:35 | 44.00888 | 0.79421 | 37966 ft | 417 kts | 327° |
| 2026-05-06 18:36 | 44.06143 | 0.76074 | 37966 ft | 416 kts | 327° |
| 2026-05-06 18:36 | 44.11396 | 0.72676 | 37966 ft | 416 kts | 327° |
| 2026-05-06 18:37 | 44.15768 | 0.69856 | 37966 ft | 416 kts | 327° |
| 2026-05-06 18:37 | 44.21902 | 0.65891 | 37966 ft | 417 kts | 327° |
| 2026-05-06 18:38 | 44.27163 | 0.62466 | 37966 ft | 417 kts | 327° |
| 2026-05-06 18:38 | 44.32393 | 0.59043 | 37965 ft | 417 kts | 327° |
| 2026-05-06 18:39 | 44.37665 | 0.55597 | 37966 ft | 415 kts | 327° |
| 2026-05-06 18:40 | 44.45511 | 0.50444 | 37966 ft | 417 kts | 327° |
| 2026-05-06 18:40 | 44.50743 | 0.46976 | 37970 ft | 416 kts | 326° |
| 2026-05-06 18:41 | 44.55988 | 0.43476 | 37984 ft | 416 kts | 326° |
| 2026-05-06 18:41 | 44.61237 | 0.39980 | 37995 ft | 416 kts | 327° |
| 2026-05-06 18:42 | 44.66457 | 0.36519 | 38000 ft | 417 kts | 326° |
| 2026-05-06 18:42 | 44.71665 | 0.33037 | 37999 ft | 416 kts | 326° |
| 2026-05-06 18:43 | 44.76889 | 0.29546 | 37999 ft | 416 kts | 326° |
| 2026-05-06 18:43 | 44.82129 | 0.26034 | 38000 ft | 415 kts | 326° |
| 2026-05-06 18:44 | 44.87334 | 0.22531 | 38000 ft | 415 kts | 326° |
| 2026-05-06 18:44 | 44.92525 | 0.19035 | 37999 ft | 415 kts | 326° |
| 2026-05-06 18:45 | 44.97776 | 0.15499 | 38000 ft | 417 kts | 326° |
| 2026-05-06 18:45 | 45.02990 | 0.11963 | 38000 ft | 419 kts | 326° |
| 2026-05-06 18:46 | 45.08276 | 0.08375 | 37999 ft | 422 kts | 327° |
| 2026-05-06 18:46 | 45.13610 | 0.04765 | 37999 ft | 424 kts | 327° |
| 2026-05-06 18:47 | 45.18938 | 0.01145 | 37999 ft | 424 kts | 327° |
| 2026-05-06 18:47 | 45.24230 | -0.02460 | 38000 ft | 424 kts | 327° |
| 2026-05-06 18:48 | 45.29570 | -0.06106 | 37999 ft | 424 kts | 327° |
| 2026-05-06 18:48 | 45.34845 | -0.09716 | 37999 ft | 424 kts | 327° |
| 2026-05-06 18:49 | 45.40166 | -0.13365 | 37999 ft | 424 kts | 327° |
| 2026-05-06 18:49 | 45.45473 | -0.17013 | 38000 ft | 423 kts | 327° |
| 2026-05-06 18:50 | 45.50796 | -0.20679 | 37999 ft | 423 kts | 327° |
| 2026-05-06 18:50 | 45.56104 | -0.24343 | 37999 ft | 424 kts | 327° |
| 2026-05-06 18:51 | 45.61383 | -0.27994 | 38000 ft | 424 kts | 327° |
| 2026-05-06 18:51 | 45.66811 | -0.31479 | 37999 ft | 431 kts | 333° |
| 2026-05-06 18:52 | 45.72523 | -0.34036 | 37999 ft | 433 kts | 335° |
| 2026-05-06 18:52 | 45.78276 | -0.36674 | 37999 ft | 433 kts | 334° |
| 2026-05-06 18:53 | 45.83986 | -0.39277 | 37999 ft | 433 kts | 335° |
| 2026-05-06 18:53 | 45.89749 | -0.41897 | 37999 ft | 432 kts | 335° |
| 2026-05-06 18:54 | 45.95454 | -0.44496 | 37999 ft | 433 kts | 335° |
| 2026-05-06 18:54 | 46.01234 | -0.47129 | 37999 ft | 433 kts | 335° |
| 2026-05-06 18:55 | 46.06945 | -0.49736 | 37998 ft | 433 kts | 335° |
| 2026-05-06 18:55 | 46.12686 | -0.52362 | 37994 ft | 433 kts | 335° |
| 2026-05-06 18:56 | 46.18432 | -0.54993 | 37990 ft | 432 kts | 335° |
| 2026-05-06 18:56 | 46.24150 | -0.57619 | 37986 ft | 432 kts | 335° |
| 2026-05-06 18:57 | 46.29888 | -0.60261 | 37978 ft | 433 kts | 335° |
| 2026-05-06 18:57 | 46.35657 | -0.62921 | 37970 ft | 433 kts | 335° |
| 2026-05-06 18:58 | 46.41377 | -0.65604 | 37965 ft | 430 kts | 332° |
| 2026-05-06 18:58 | 46.46771 | -0.69191 | 37966 ft | 422 kts | 325° |
| 2026-05-06 18:59 | 46.52014 | -0.73004 | 37966 ft | 424 kts | 326° |
| 2026-05-06 18:59 | 46.57294 | -0.76814 | 37966 ft | 423 kts | 326° |
| 2026-05-06 19:00 | 46.62544 | -0.80649 | 37966 ft | 423 kts | 326° |
| 2026-05-06 19:00 | 46.67786 | -0.84489 | 37966 ft | 422 kts | 326° |
| 2026-05-06 19:01 | 46.73036 | -0.88351 | 37966 ft | 423 kts | 326° |
| 2026-05-06 19:01 | 46.78288 | -0.92223 | 37966 ft | 423 kts | 325° |
| 2026-05-06 19:02 | 46.83527 | -0.96097 | 37966 ft | 424 kts | 325° |
| 2026-05-06 19:02 | 46.88786 | -0.99993 | 37966 ft | 422 kts | 326° |
| 2026-05-06 19:03 | 46.94225 | -1.03279 | 37965 ft | 429 kts | 335° |
| 2026-05-06 19:03 | 47.00198 | -1.04635 | 37966 ft | 441 kts | 346° |
| 2026-05-06 19:04 | 47.06296 | -1.05449 | 37966 ft | 440 kts | 344° |
| 2026-05-06 19:04 | 47.12387 | -1.06339 | 37966 ft | 441 kts | 344° |
| 2026-05-06 19:05 | 47.18524 | -1.07189 | 37966 ft | 441 kts | 344° |
| 2026-05-06 19:05 | 47.24596 | -1.08030 | 37966 ft | 441 kts | 344° |
| 2026-05-06 19:06 | 47.30688 | -1.08870 | 37966 ft | 441 kts | 344° |
| 2026-05-06 19:06 | 47.36785 | -1.09710 | 37966 ft | 441 kts | 344° |
| 2026-05-06 19:07 | 47.42890 | -1.10552 | 37966 ft | 442 kts | 344° |
| 2026-05-06 19:07 | 47.49008 | -1.11396 | 37966 ft | 442 kts | 344° |
| 2026-05-06 19:08 | 47.51189 | -1.11697 | 37964 ft | 442 kts | 344° |
| 2026-05-06 19:08 | 47.57307 | -1.12543 | 37966 ft | 441 kts | 344° |
| 2026-05-06 19:09 | 47.63418 | -1.13394 | 37966 ft | 442 kts | 344° |
| 2026-05-06 19:09 | 47.69507 | -1.14241 | 37966 ft | 442 kts | 344° |
| 2026-05-06 19:10 | 47.75639 | -1.15095 | 37966 ft | 442 kts | 344° |
| 2026-05-06 19:10 | 47.81741 | -1.15949 | 37966 ft | 442 kts | 344° |
| 2026-05-06 19:11 | 47.87853 | -1.16805 | 37966 ft | 441 kts | 344° |
| 2026-05-06 19:11 | 47.93957 | -1.17663 | 37966 ft | 442 kts | 343° |
| 2026-05-06 19:12 | 48.00037 | -1.18519 | 37966 ft | 442 kts | 343° |
| 2026-05-06 19:12 | 48.06151 | -1.19381 | 37966 ft | 441 kts | 343° |
| 2026-05-06 19:13 | 48.12228 | -1.20240 | 37966 ft | 440 kts | 343° |
| 2026-05-06 19:13 | 48.18304 | -1.21103 | 37967 ft | 440 kts | 343° |
| 2026-05-06 19:14 | 48.24427 | -1.21973 | 37968 ft | 441 kts | 343° |
| 2026-05-06 19:14 | 48.30496 | -1.22838 | 37969 ft | 441 kts | 343° |
| 2026-05-06 19:15 | 48.36618 | -1.23712 | 37970 ft | 441 kts | 343° |
| 2026-05-06 19:15 | 48.42699 | -1.24582 | 37971 ft | 440 kts | 343° |
| 2026-05-06 19:16 | 48.48807 | -1.25460 | 37972 ft | 441 kts | 343° |
| 2026-05-06 19:16 | 48.54883 | -1.26334 | 37973 ft | 441 kts | 343° |
| 2026-05-06 19:17 | 48.60981 | -1.27213 | 37974 ft | 441 kts | 343° |
| 2026-05-06 19:17 | 48.67096 | -1.28097 | 37977 ft | 441 kts | 343° |
| 2026-05-06 19:18 | 48.73153 | -1.28974 | 37985 ft | 440 kts | 343° |
| 2026-05-06 19:18 | 48.79262 | -1.29862 | 37991 ft | 441 kts | 343° |
| 2026-05-06 19:19 | 48.85332 | -1.30746 | 37993 ft | 441 kts | 343° |
| 2026-05-06 19:19 | 48.91431 | -1.31635 | 37993 ft | 440 kts | 343° |
| 2026-05-06 19:20 | 48.97503 | -1.32525 | 37993 ft | 441 kts | 343° |
| 2026-05-06 19:20 | 49.03597 | -1.33421 | 37993 ft | 444 kts | 342° |
| 2026-05-06 19:21 | 49.09764 | -1.34333 | 37993 ft | 450 kts | 341° |
| 2026-05-06 19:21 | 49.15978 | -1.35251 | 37993 ft | 454 kts | 340° |
| 2026-05-06 19:22 | 49.22269 | -1.36174 | 37993 ft | 453 kts | 340° |
| 2026-05-06 19:22 | 49.28479 | -1.37090 | 37993 ft | 452 kts | 340° |
| 2026-05-06 19:23 | 49.34729 | -1.38019 | 37993 ft | 452 kts | 340° |
| 2026-05-06 19:23 | 49.40973 | -1.38949 | 37993 ft | 452 kts | 340° |
| 2026-05-06 19:24 | 49.47203 | -1.39879 | 37993 ft | 453 kts | 340° |
| 2026-05-06 19:24 | 49.53453 | -1.40814 | 37993 ft | 452 kts | 340° |
| 2026-05-06 19:25 | 49.59726 | -1.41490 | 37992 ft | 464 kts | 347° |
| 2026-05-06 19:25 | 49.66235 | -1.40954 | 37993 ft | 471 kts | 350° |
| 2026-05-06 19:26 | 49.72716 | -1.40412 | 37993 ft | 470 kts | 349° |
| 2026-05-06 19:26 | 49.79225 | -1.39869 | 37993 ft | 470 kts | 350° |
| 2026-05-06 19:27 | 49.85751 | -1.39299 | 37993 ft | 470 kts | 350° |
| 2026-05-06 19:27 | 49.92234 | -1.38730 | 37993 ft | 470 kts | 350° |
| 2026-05-06 19:28 | 49.98739 | -1.38152 | 37993 ft | 471 kts | 350° |
| 2026-05-06 19:28 | 50.05291 | -1.36834 | 37993 ft | 483 kts | 357° |
| 2026-05-06 19:29 | 50.11884 | -1.35094 | 37993 ft | 481 kts | 356° |
| 2026-05-06 19:29 | 50.18499 | -1.33458 | 37993 ft | 481 kts | 356° |
| 2026-05-06 19:30 | 50.25092 | -1.31806 | 37993 ft | 481 kts | 356° |
| 2026-05-06 19:30 | 50.31662 | -1.30158 | 37993 ft | 482 kts | 356° |
| 2026-05-06 19:31 | 50.38260 | -1.28499 | 37993 ft | 481 kts | 356° |
| 2026-05-06 19:31 | 50.48136 | -1.25677 | 37992 ft | 494 kts | 4° |
| 2026-05-06 19:32 | 50.51387 | -1.23880 | 37992 ft | 507 kts | 13° |
| 2026-05-06 19:32 | 50.54565 | -1.21245 | 37994 ft | 520 kts | 22° |
| 2026-05-06 19:32 | 50.60643 | -1.15076 | 37993 ft | 522 kts | 23° |
| 2026-05-06 19:33 | 50.66757 | -1.09039 | 37993 ft | 517 kts | 23° |
| 2026-05-06 19:33 | 50.72783 | -1.03052 | 37993 ft | 515 kts | 23° |
| 2026-05-06 19:34 | 50.78836 | -0.97227 | 37993 ft | 507 kts | 19° |
| 2026-05-06 19:34 | 50.85164 | -0.92672 | 37993 ft | 492 kts | 8° |
| 2026-05-06 19:35 | 50.91603 | -0.89197 | 37993 ft | 492 kts | 7° |
| 2026-05-06 19:35 | 50.98058 | -0.85704 | 37993 ft | 496 kts | 6° |
| 2026-05-06 19:36 | 51.04629 | -0.82218 | 37993 ft | 500 kts | 5° |
| 2026-05-06 19:36 | 51.11200 | -0.78753 | 37993 ft | 500 kts | 5° |
| 2026-05-06 19:37 | 51.17806 | -0.75273 | 37993 ft | 498 kts | 4° |
| 2026-05-06 19:37 | 51.23238 | -0.72419 | 37993 ft | 498 kts | 4° |
| 2026-05-06 19:38 | 51.30900 | -0.68386 | 37996 ft | 498 kts | 4° |
| 2026-05-06 19:38 | 51.37470 | -0.64919 | 38000 ft | 499 kts | 4° |
| 2026-05-06 19:39 | 51.44037 | -0.61445 | 38004 ft | 498 kts | 4° |
| 2026-05-06 19:39 | 51.50563 | -0.57982 | 38008 ft | 498 kts | 4° |
| 2026-05-06 19:40 | 51.57127 | -0.54490 | 38007 ft | 498 kts | 4° |
| 2026-05-06 19:40 | 51.63690 | -0.50988 | 38000 ft | 498 kts | 4° |
| 2026-05-06 19:41 | 51.70274 | -0.47463 | 37995 ft | 498 kts | 4° |
| 2026-05-06 19:41 | 51.76819 | -0.44898 | 38006 ft | 468 kts | 349° |
| 2026-05-06 19:42 | 51.79976 | -0.44910 | 38012 ft | 444 kts | 337° |
| 2026-05-06 19:42 | 51.82900 | -0.45771 | 38018 ft | 425 kts | 328° |
| 2026-05-06 19:42 | 51.85667 | -0.47230 | 38019 ft | 410 kts | 321° |
| 2026-05-06 19:42 | 51.88142 | -0.49260 | 38021 ft | 393 kts | 313° |
| 2026-05-06 19:43 | 51.92753 | -0.53881 | 37822 ft | 391 kts | 313° |
| 2026-05-06 19:43 | 51.95088 | -0.56117 | 37308 ft | 389 kts | 313° |
| 2026-05-06 19:43 | 51.97394 | -0.58337 | 36742 ft | 386 kts | 313° |
| 2026-05-06 19:44 | 51.99654 | -0.60542 | 36166 ft | 385 kts | 313° |
| 2026-05-06 19:44 | 52.01931 | -0.62772 | 35546 ft | 385 kts | 313° |
| 2026-05-06 19:44 | 52.04218 | -0.65012 | 34906 ft | 385 kts | 313° |
| 2026-05-06 19:44 | 52.06511 | -0.67261 | 34273 ft | 385 kts | 313° |
| 2026-05-06 19:45 | 52.08779 | -0.69481 | 33806 ft | 380 kts | 313° |
| 2026-05-06 19:45 | 52.11037 | -0.71694 | 33318 ft | 377 kts | 313° |
| 2026-05-06 19:45 | 52.13248 | -0.73870 | 32837 ft | 373 kts | 313° |
| 2026-05-06 19:45 | 52.13927 | -0.74538 | 32689 ft | 371 kts | 313° |
| 2026-05-06 19:46 | 52.16121 | -0.76701 | 32211 ft | 368 kts | 313° |
| 2026-05-06 19:46 | 52.18302 | -0.78862 | 31736 ft | 370 kts | 313° |
| 2026-05-06 19:46 | 52.20510 | -0.81058 | 31247 ft | 372 kts | 314° |
| 2026-05-06 19:46 | 52.22706 | -0.83224 | 30764 ft | 369 kts | 314° |
| 2026-05-06 19:47 | 52.24886 | -0.85377 | 30282 ft | 365 kts | 314° |
| 2026-05-06 19:47 | 52.27023 | -0.87497 | 29809 ft | 361 kts | 314° |
| 2026-05-06 19:47 | 52.29151 | -0.89611 | 29335 ft | 358 kts | 314° |
| 2026-05-06 19:47 | 52.31283 | -0.91731 | 28860 ft | 355 kts | 314° |
| 2026-05-06 19:48 | 52.33349 | -0.93788 | 28397 ft | 351 kts | 314° |
| 2026-05-06 19:48 | 52.35432 | -0.95865 | 27931 ft | 348 kts | 314° |
| 2026-05-06 19:48 | 52.37505 | -0.97936 | 27466 ft | 349 kts | 315° |
| 2026-05-06 19:48 | 52.39592 | -1.00035 | 26994 ft | 354 kts | 315° |
| 2026-05-06 19:49 | 52.41661 | -1.02101 | 26527 ft | 351 kts | 315° |
| 2026-05-06 19:49 | 52.43751 | -1.04186 | 26057 ft | 348 kts | 315° |
| 2026-05-06 19:49 | 52.45809 | -1.06248 | 25593 ft | 345 kts | 315° |
| 2026-05-06 19:49 | 52.47835 | -1.08281 | 25136 ft | 342 kts | 316° |
| 2026-05-06 19:50 | 52.49862 | -1.10317 | 24678 ft | 340 kts | 316° |
| 2026-05-06 19:50 | 52.51868 | -1.12334 | 24223 ft | 337 kts | 316° |
| 2026-05-06 19:50 | 52.53834 | -1.14314 | 23776 ft | 335 kts | 316° |
| 2026-05-06 19:50 | 52.55835 | -1.16335 | 23322 ft | 339 kts | 316° |
| 2026-05-06 19:51 | 52.57820 | -1.18343 | 22865 ft | 339 kts | 317° |
| 2026-05-06 19:51 | 52.59833 | -1.20369 | 22403 ft | 337 kts | 317° |
| 2026-05-06 19:51 | 52.61813 | -1.22366 | 21948 ft | 335 kts | 317° |
| 2026-05-06 19:51 | 52.63802 | -1.24379 | 21489 ft | 333 kts | 317° |
| 2026-05-06 19:52 | 52.65754 | -1.26354 | 21039 ft | 330 kts | 317° |
| 2026-05-06 19:52 | 52.67690 | -1.28317 | 20589 ft | 328 kts | 318° |
| 2026-05-06 19:52 | 52.69641 | -1.30296 | 20147 ft | 326 kts | 318° |
| 2026-05-06 19:52 | 52.71554 | -1.32236 | 20030 ft | 320 kts | 318° |
| 2026-05-06 19:53 | 52.73454 | -1.34179 | 20048 ft | 327 kts | 318° |
| 2026-05-06 19:53 | 52.75388 | -1.36151 | 19810 ft | 322 kts | 318° |
| 2026-05-06 19:53 | 52.77271 | -1.38064 | 19419 ft | 318 kts | 318° |
| 2026-05-06 19:53 | 52.79127 | -1.39961 | 18996 ft | 316 kts | 318° |
| 2026-05-06 19:54 | 52.81011 | -1.41889 | 18556 ft | 314 kts | 319° |
| 2026-05-06 19:54 | 52.82851 | -1.43772 | 18126 ft | 313 kts | 319° |
| 2026-05-06 19:54 | 52.84704 | -1.45670 | 17692 ft | 311 kts | 319° |
| 2026-05-06 19:54 | 52.86528 | -1.47541 | 17263 ft | 310 kts | 319° |
| 2026-05-06 19:55 | 52.88333 | -1.49393 | 16838 ft | 308 kts | 319° |
| 2026-05-06 19:55 | 52.90151 | -1.51261 | 16409 ft | 307 kts | 320° |
| 2026-05-06 19:55 | 52.91960 | -1.53122 | 15982 ft | 305 kts | 320° |
| 2026-05-06 19:55 | 52.93749 | -1.54963 | 15558 ft | 304 kts | 320° |
| 2026-05-06 19:56 | 52.95546 | -1.56815 | 15133 ft | 303 kts | 320° |
| 2026-05-06 19:56 | 52.97323 | -1.58648 | 14710 ft | 301 kts | 320° |
| 2026-05-06 19:56 | 52.99101 | -1.60484 | 14287 ft | 300 kts | 321° |
| 2026-05-06 19:56 | 53.00877 | -1.62320 | 13866 ft | 303 kts | 321° |
| 2026-05-06 19:57 | 53.02683 | -1.64193 | 13428 ft | 307 kts | 321° |
| 2026-05-06 19:57 | 53.04487 | -1.66061 | 12997 ft | 306 kts | 320° |
| 2026-05-06 19:57 | 53.06083 | -1.68283 | 12569 ft | 295 kts | 305° |
| 2026-05-06 19:57 | 53.07388 | -1.70866 | 12160 ft | 293 kts | 303° |
| 2026-05-06 19:58 | 53.08707 | -1.73430 | 11743 ft | 293 kts | 304° |
| 2026-05-06 19:58 | 53.10022 | -1.75951 | 11409 ft | 289 kts | 304° |
| 2026-05-06 19:58 | 53.11340 | -1.78500 | 11251 ft | 279 kts | 304° |
| 2026-05-06 19:58 | 53.12603 | -1.80955 | 10839 ft | 280 kts | 304° |
| 2026-05-06 19:59 | 53.13882 | -1.83446 | 10471 ft | 286 kts | 304° |
| 2026-05-06 19:59 | 53.15177 | -1.85962 | 10019 ft | 288 kts | 304° |
| 2026-05-06 19:59 | 53.16484 | -1.88509 | 9537 ft | 291 kts | 305° |
| 2026-05-06 19:59 | 53.17818 | -1.91110 | 9074 ft | 294 kts | 306° |
| 2026-05-06 20:00 | 53.19130 | -1.93662 | 8771 ft | 290 kts | 306° |
| 2026-05-06 20:00 | 53.20436 | -1.96207 | 8448 ft | 288 kts | 306° |
| 2026-05-06 20:00 | 53.21733 | -1.98751 | 8042 ft | 292 kts | 307° |
| 2026-05-06 20:00 | 53.23022 | -2.01385 | 8010 ft | 282 kts | 299° |
| 2026-05-06 20:01 | 53.23752 | -2.04238 | 7951 ft | 263 kts | 275° |
| 2026-05-06 20:01 | 53.23751 | -2.07258 | 7357 ft | 266 kts | 258° |
| 2026-05-06 20:01 | 53.23523 | -2.10386 | 6819 ft | 272 kts | 259° |
| 2026-05-06 20:01 | 53.23299 | -2.13604 | 6412 ft | 273 kts | 259° |
| 2026-05-06 20:02 | 53.23069 | -2.16746 | 6018 ft | 273 kts | 259° |
| 2026-05-06 20:02 | 53.22826 | -2.19911 | 5604 ft | 275 kts | 259° |
| 2026-05-06 20:02 | 53.22566 | -2.23066 | 5328 ft | 271 kts | 259° |
| 2026-05-06 20:02 | 53.22293 | -2.26172 | 4951 ft | 271 kts | 259° |
| 2026-05-06 20:03 | 53.22031 | -2.29273 | 4962 ft | 269 kts | 259° |
| 2026-05-06 20:03 | 53.21738 | -2.32449 | 4965 ft | 280 kts | 258° |
| 2026-05-06 20:03 | 53.21453 | -2.35602 | 4915 ft | 269 kts | 259° |
| 2026-05-06 20:03 | 53.21196 | -2.38701 | 4538 ft | 270 kts | 259° |
| 2026-05-06 20:04 | 53.20929 | -2.41740 | 4329 ft | 263 kts | 259° |
| 2026-05-06 20:04 | 53.20660 | -2.44783 | 3924 ft | 266 kts | 259° |
| 2026-05-06 20:04 | 53.20380 | -2.47827 | 3602 ft | 265 kts | 265° |
| 2026-05-06 20:04 | 53.20631 | -2.50821 | 3306 ft | 264 kts | 292° |
| 2026-05-06 20:05 | 53.21701 | -2.53320 | 2950 ft | 265 kts | 322° |
| 2026-05-06 20:05 | 53.23353 | -2.54576 | 2945 ft | 266 kts | 352° |
| 2026-05-06 20:05 | 53.25185 | -2.54380 | 2947 ft | 253 kts | 21° |
| 2026-05-06 20:05 | 53.26552 | -2.52907 | 2928 ft | 219 kts | 53° |
| 2026-05-06 20:06 | 53.27256 | -2.50758 | 2827 ft | 210 kts | 70° |
| 2026-05-06 20:06 | 53.27850 | -2.48565 | 2581 ft | 206 kts | 69° |
| 2026-05-06 20:06 | 53.28381 | -2.46398 | 2350 ft | 191 kts | 77° |
| 2026-05-06 20:06 | 53.28527 | -2.44247 | 2250 ft | 186 kts | 90° |
| 2026-05-06 20:07 | 53.28537 | -2.42230 | 2061 ft | 161 kts | 91° |
| 2026-05-06 20:07 | 53.28587 | -2.40503 | 1774 ft | 135 kts | 84° |
| 2026-05-06 20:07 | 53.28920 | -2.39151 | 1463 ft | 132 kts | 51° |
| 2026-05-06 20:07 | 53.29588 | -2.38083 | 1302 ft | 127 kts | 45° |
| 2026-05-06 20:08 | 53.30226 | -2.37018 | 1133 ft | 130 kts | 48° |
| 2026-05-06 20:08 | 53.30835 | -2.35898 | 1066 ft | 135 kts | 51° |
| 2026-05-06 20:08 | 53.31453 | -2.34669 | 872 ft | 135 kts | 52° |
| 2026-05-06 20:08 | 53.32029 | -2.33477 | 665 ft | 131 kts | 52° |
| 2026-05-06 20:09 | 53.32594 | -2.32307 | 470 ft | 130 kts | 51° |
| 2026-05-06 20:09 | 53.33164 | -2.31129 | 317 ft | 127 kts | 51° |
| 2026-05-06 20:09 | 53.33667 | -2.30096 | 262 ft | 90 kts | 51° |
| 2026-05-06 20:09 | 53.33964 | -2.29475 | 262 ft | 61 kts | 52° |
| 2026-05-06 20:10 | 53.34213 | -2.28965 | 262 ft | 50 kts | 51° |
| 2026-05-06 20:10 | 53.34421 | -2.28606 | 262 ft | 36 kts | 30° |
| 2026-05-06 20:10 | 53.34634 | -2.28451 | 262 ft | 30 kts | 23° |
| 2026-05-06 20:10 | 53.34771 | -2.28278 | 262 ft | 21 kts | 49° |
| 2026-05-06 20:11 | 53.34856 | -2.28102 | 262 ft | 18 kts | 51° |
| 2026-05-06 20:11 | 53.34938 | -2.27932 | 262 ft | 20 kts | 52° |
| 2026-05-06 20:11 | 53.35038 | -2.27723 | 262 ft | 24 kts | 52° |
| 2026-05-06 20:11 | 53.35148 | -2.27496 | 262 ft | 26 kts | 51° |
| 2026-05-06 20:12 | 53.35267 | -2.27255 | 262 ft | 24 kts | 47° |
| 2026-05-06 20:12 | 53.35330 | -2.27194 | 262 ft | 0 kts | 6° |
| 2026-05-06 20:12 | 53.35332 | -2.27193 | 262 ft | 2 kts | 5° |
| 2026-05-06 20:13 | 53.35340 | -2.27193 | 262 ft | 0 kts | 1° |
| 2026-05-06 20:13 | 53.35342 | -2.27193 | 262 ft | 0 kts | 1° |
| 2026-05-06 20:13 | 53.35344 | -2.27192 | 262 ft | 0 kts | 1° |
| 2026-05-06 20:14 | 53.35346 | -2.27192 | 262 ft | 0 kts | 1° |
| 2026-05-06 20:15 | 53.35383 | -2.27206 | 262 ft | 10 kts | 332° |
| 2026-05-06 20:15 | 53.35472 | -2.27315 | 262 ft | 21 kts | 323° |
| 2026-05-06 20:16 | 53.35587 | -2.27479 | 262 ft | 20 kts | 320° |
| 2026-05-06 20:16 | 53.35695 | -2.27614 | 262 ft | 18 kts | 333° |
| 2026-05-06 20:16 | 53.35788 | -2.27689 | 262 ft | 12 kts | 320° |
| 2026-05-06 20:16 | 53.35844 | -2.27790 | 262 ft | 11 kts | 311° |
| 2026-05-06 20:17 | 53.35903 | -2.27848 | 262 ft | 9 kts | 2° |
| 2026-05-06 20:17 | 53.35970 | -2.27835 | 262 ft | 10 kts | 6° |
| 2026-05-06 20:17 | 53.36064 | -2.27850 | 262 ft | 16 kts | 332° |
| 2026-05-06 20:17 | 53.36138 | -2.27971 | 262 ft | 13 kts | 313° |
| 2026-05-06 20:18 | 53.36205 | -2.28078 | 262 ft | 12 kts | 326° |
| 2026-05-06 20:18 | 53.36282 | -2.28074 | 262 ft | 11 kts | 22° |
| 2026-05-06 20:18 | 53.36346 | -2.28011 | 262 ft | 10 kts | 38° |
| 2026-05-06 20:18 | 53.36394 | -2.27936 | 262 ft | 8 kts | 21° |
| 2026-05-06 20:19 | 53.36449 | -2.27909 | 262 ft | 7 kts | 31° |
| 2026-05-06 20:19 | 53.36484 | -2.27848 | 262 ft | 6 kts | 45° |
| 2026-05-06 20:19 | 53.36489 | -2.27841 | 262 ft | 0 kts | 43° |